createdAt,value
2019-03-01T00:01:51.692Z,2.33
2019-03-01T00:09:16.684Z,3.07
2019-03-01T00:16:10.138Z,3.00
2019-03-01T00:23:32.825Z,2.50
2019-03-01T00:30:52.197Z,3.20
2019-03-01T00:37:49.674Z,2.60
2019-03-01T00:44:48.197Z,3.77
2019-03-01T00:51:33.467Z,3.23
2019-03-01T00:58:37.675Z,3.63
2019-03-01T01:05:22.546Z,2.87
2019-03-01T01:12:07.395Z,3.40
2019-03-01T01:18:52.837Z,2.23
2019-03-01T01:25:57.355Z,2.27
2019-03-01T01:33:01.003Z,2.50
2019-03-01T01:39:58.395Z,2.37
2019-03-01T01:46:56.033Z,2.13
2019-03-01T01:53:53.241Z,2.50
2019-03-01T02:00:49.906Z,2.20
2019-03-01T02:07:47.168Z,1.83
2019-03-01T02:14:44.451Z,1.80
2019-03-01T02:21:41.175Z,1.87
2019-03-01T02:28:39.716Z,1.70
2019-03-01T02:35:37.178Z,1.50
2019-03-01T02:42:22.049Z,1.70
2019-03-01T02:49:26.324Z,1.80
2019-03-01T02:56:24.088Z,1.30
2019-03-01T03:03:21.462Z,1.80
2019-03-01T03:10:18.304Z,1.43
2019-03-01T03:17:15.902Z,1.33
2019-03-01T03:24:13.460Z,2.00
2019-03-01T03:30:59.743Z,1.60
2019-03-01T03:38:04.095Z,1.70
2019-03-01T03:44:54.319Z,1.70
2019-03-01T03:51:39.177Z,1.53
2019-03-01T03:58:24.188Z,1.80
2019-03-01T04:05:10.039Z,1.70
2019-03-01T04:11:55.356Z,1.97
2019-03-01T04:18:52.249Z,2.20
2019-03-01T04:25:49.189Z,2.07
2019-03-01T04:32:46.743Z,2.00
2019-03-01T04:39:43.430Z,2.00
2019-03-01T04:46:40.370Z,3.13
2019-03-01T04:53:37.107Z,1.60
2019-03-01T05:00:34.682Z,1.40
2019-03-01T05:07:31.871Z,1.50
2019-03-01T05:14:29.377Z,1.40
2019-03-01T05:21:26.676Z,1.10
2019-03-01T05:28:24.131Z,1.40
2019-03-01T05:35:20.760Z,1.20
2019-03-01T05:42:18.035Z,1.67
2019-03-01T05:49:15.249Z,1.13
2019-03-01T05:56:12.298Z,1.80
2019-03-01T06:03:09.400Z,1.47
2019-03-01T06:10:06.483Z,1.30
2019-03-01T06:17:03.231Z,1.60
2019-03-01T06:24:00.501Z,1.22
2019-03-01T06:30:57.274Z,1.10
2019-03-01T06:37:54.776Z,1.10
2019-03-01T06:44:52.358Z,1.63
2019-03-01T06:51:50.142Z,1.63
2019-03-01T06:58:47.687Z,1.53
2019-03-01T07:05:44.476Z,1.40
2019-03-01T07:12:41.838Z,1.17
2019-03-01T07:19:39.291Z,1.20
2019-03-01T07:26:36.827Z,1.17
2019-03-01T07:33:33.933Z,2.07
2019-03-01T07:40:30.917Z,1.67
2019-03-01T07:47:28.097Z,1.50
2019-03-01T07:54:24.860Z,2.13
2019-03-01T08:01:25.694Z,1.60
2019-03-01T08:08:21.449Z,1.27
2019-03-01T08:15:18.500Z,1.13
2019-03-01T08:22:15.904Z,1.43
2019-03-01T08:29:13.306Z,2.00
2019-03-01T08:36:10.042Z,1.90
2019-03-01T08:43:11.745Z,1.20
2019-03-01T08:50:05.464Z,2.00
2019-03-01T08:57:02.783Z,1.83
2019-03-01T09:04:03.063Z,1.50
2019-03-01T09:11:00.537Z,1.20
2019-03-01T09:17:57.516Z,1.23
2019-03-01T09:24:54.372Z,1.00
2019-03-01T09:31:54.389Z,1.23
2019-03-01T09:38:51.240Z,1.02
2019-03-01T09:45:49.557Z,0.70
2019-03-01T09:52:46.858Z,0.90
2019-03-01T09:59:44.196Z,1.37
2019-03-01T10:06:41.784Z,1.27
2019-03-01T10:13:39.345Z,1.77
2019-03-01T10:20:36.920Z,1.10
2019-03-01T10:27:34.200Z,1.57
2019-03-01T10:34:31.076Z,1.20
2019-03-01T10:41:28.119Z,0.97
2019-03-01T10:48:25.290Z,1.20
2019-03-01T10:55:22.485Z,1.63
2019-03-01T11:02:19.681Z,3.23
2019-03-01T11:09:16.567Z,1.27
2019-03-01T11:16:14.172Z,0.80
2019-03-01T11:23:10.911Z,2.13
2019-03-01T11:30:08.741Z,1.60
2019-03-01T11:37:06.155Z,1.67
2019-03-01T11:44:03.612Z,1.43
2019-03-01T11:51:01.059Z,2.50
2019-03-01T11:57:57.748Z,1.60
2019-03-01T12:04:55.310Z,2.40
2019-03-01T12:11:52.282Z,2.37
2019-03-01T12:18:49.015Z,2.42
2019-03-01T12:25:45.741Z,2.87
2019-03-01T12:32:42.551Z,2.40
2019-03-01T12:39:39.563Z,2.70
2019-03-01T12:46:36.173Z,3.13
2019-03-01T12:53:32.923Z,3.03
2019-03-01T13:00:30.464Z,3.00
2019-03-01T13:07:27.459Z,3.60
2019-03-01T13:14:24.764Z,3.40
2019-03-01T13:21:22.435Z,3.27
2019-03-01T13:28:19.278Z,3.07
2019-03-01T13:35:16.438Z,3.07
2019-03-01T13:42:14.100Z,3.20
2019-03-01T13:49:10.926Z,3.50
2019-03-01T13:56:08.232Z,3.63
2019-03-01T14:03:05.806Z,3.43
2019-03-01T14:10:04.748Z,4.10
2019-03-01T14:17:05.403Z,3.30
2019-03-01T14:24:02.931Z,3.70
2019-03-01T14:30:59.655Z,4.10
2019-03-01T14:37:57.585Z,4.23
2019-03-01T14:44:54.419Z,4.80
2019-03-01T14:51:51.370Z,5.30
2019-03-01T14:58:49.064Z,6.12
2019-03-01T15:05:46.163Z,11.20
2019-03-01T15:12:43.155Z,18.60
2019-03-01T15:19:41.315Z,8.87
2019-03-01T15:26:38.523Z,7.07
2019-03-01T15:33:35.498Z,3.43
2019-03-01T15:40:32.884Z,6.23
2019-03-01T15:47:31.227Z,7.30
2019-03-01T15:54:28.470Z,8.17
2019-03-01T16:01:25.880Z,7.50
2019-03-01T16:08:23.416Z,8.83
2019-03-01T16:15:20.176Z,9.33
2019-03-01T16:22:18.906Z,9.30
2019-03-01T16:29:16.892Z,11.73
2019-03-01T16:36:15.592Z,12.17
2019-03-01T16:43:12.520Z,12.13
2019-03-01T16:50:10.064Z,12.37
2019-03-01T16:57:07.214Z,12.63
2019-03-01T17:04:04.421Z,13.40
2019-03-01T17:11:02.607Z,13.60
2019-03-01T17:18:00.803Z,13.67
2019-03-01T17:24:58.308Z,13.80
2019-03-01T17:31:55.045Z,14.53
2019-03-01T17:38:53.217Z,13.00
2019-03-01T17:45:50.934Z,14.13
2019-03-01T17:52:47.948Z,13.77
2019-03-01T17:59:48.303Z,15.30
2019-03-01T18:06:43.662Z,15.17
2019-03-01T18:13:41.526Z,13.90
2019-03-01T18:20:38.761Z,15.00
2019-03-01T18:27:35.814Z,15.13
2019-03-01T18:34:35.611Z,16.20
2019-03-01T18:41:32.931Z,17.00
2019-03-01T18:48:29.781Z,16.50
2019-03-01T18:55:27.807Z,16.90
2019-03-01T19:02:27.619Z,18.90
2019-03-01T19:09:23.960Z,20.03
2019-03-01T19:16:21.217Z,20.30
2019-03-01T19:23:18.343Z,19.73
2019-03-01T19:30:15.255Z,21.63
2019-03-01T19:37:13.303Z,20.17
2019-03-01T19:44:11.129Z,21.90
2019-03-01T19:51:08.200Z,22.47
2019-03-01T19:58:05.421Z,23.87
2019-03-01T20:05:03.072Z,25.07
2019-03-01T20:12:02.694Z,24.47
2019-03-01T20:18:59.816Z,25.33
2019-03-01T20:25:57.305Z,25.70
2019-03-01T20:32:54.791Z,24.23
2019-03-01T20:39:52.472Z,23.90
2019-03-01T20:46:49.924Z,23.40
2019-03-01T20:53:49.538Z,21.53
2019-03-01T21:00:46.801Z,21.60
2019-03-01T21:07:48.229Z,20.73
2019-03-01T21:14:44.024Z,19.97
2019-03-01T21:21:40.971Z,21.57
2019-03-01T21:28:38.427Z,21.03
2019-03-01T21:35:35.301Z,20.77
2019-03-01T21:42:32.140Z,21.33
2019-03-01T21:49:29.068Z,19.43
2019-03-01T21:56:26.883Z,21.23
2019-03-01T22:03:24.846Z,21.37
2019-03-01T22:10:22.403Z,19.93
2019-03-01T22:17:19.802Z,21.70
2019-03-01T22:24:17.586Z,20.57
2019-03-01T22:31:14.721Z,19.87
2019-03-01T22:38:11.874Z,20.43
2019-03-01T22:45:10.325Z,19.90
2019-03-01T22:52:09.139Z,20.57
2019-03-01T22:59:08.624Z,19.67
2019-03-01T23:06:04.928Z,20.27
2019-03-01T23:13:04.066Z,19.40
2019-03-01T23:19:52.743Z,19.67
2019-03-01T23:26:57.730Z,21.13
2019-03-01T23:34:03.660Z,21.30
2019-03-01T23:41:01.232Z,21.83
2019-03-01T23:47:58.872Z,21.80
2019-03-01T23:54:56.194Z,22.93
